createdAt,value
2019-01-25T08:57:32.837Z,30.47
2019-01-25T09:07:34.113Z,30.33
2019-01-25T09:17:35.348Z,32.83
2019-01-25T09:27:36.600Z,31.90
2019-01-25T09:37:37.868Z,31.07
2019-01-25T09:47:39.900Z,32.47
2019-01-25T09:57:41.931Z,32.00
2019-01-25T10:07:43.235Z,33.77
2019-01-25T10:17:44.504Z,30.37
2019-01-25T10:27:47.175Z,35.53
2019-01-25T10:37:47.076Z,35.57
2019-01-25T10:47:48.353Z,35.83
2019-01-25T10:57:49.601Z,33.43
2019-01-25T11:07:50.872Z,33.30
2019-01-25T11:17:52.884Z,33.47
2019-01-25T11:27:54.147Z,31.10
2019-01-25T11:37:55.460Z,31.13
2019-01-25T11:47:56.740Z,30.13
2019-01-25T11:57:58.016Z,30.70
2019-01-25T12:07:59.304Z,34.33
2019-01-25T12:18:00.585Z,30.53
2019-01-25T12:28:05.373Z,29.53
2019-01-25T12:38:03.867Z,27.87
2019-01-25T12:48:05.906Z,31.80
2019-01-25T12:58:07.259Z,29.87
2019-01-25T13:08:08.512Z,19.10
2019-01-25T13:18:09.781Z,9.33
2019-01-25T13:28:17.494Z,8.57
2019-01-25T13:38:18.918Z,9.17
2019-01-25T13:48:20.242Z,9.97
2019-01-25T13:58:21.855Z,9.00
2019-01-25T14:08:23.161Z,9.20
2019-01-25T14:18:26.431Z,9.53
2019-01-25T14:28:27.677Z,8.07
2019-01-25T14:38:28.954Z,9.90
2019-01-25T14:48:30.989Z,10.07
2019-01-25T14:58:32.253Z,8.77
2019-01-25T15:08:33.533Z,9.67
2019-01-25T15:18:34.974Z,8.43
2019-01-25T15:28:36.267Z,8.57
2019-01-25T15:38:37.543Z,8.47
2019-01-25T15:48:39.585Z,8.77
2019-01-25T15:58:41.079Z,10.57
2019-01-25T16:08:42.581Z,8.97
2019-01-25T16:18:43.831Z,8.07
2019-01-25T16:28:45.109Z,9.30
2019-01-25T16:38:46.377Z,8.93
2019-01-25T16:48:47.626Z,8.90
2019-01-25T16:58:48.865Z,8.53
2019-01-25T17:08:50.136Z,8.27
2019-01-25T17:18:51.430Z,9.87
2019-01-25T17:28:52.696Z,8.03
2019-01-25T17:38:54.014Z,9.10
2019-01-25T17:48:55.374Z,8.40
2019-01-25T17:58:56.657Z,8.43
2019-01-25T18:08:58.000Z,8.10
2019-01-25T18:18:59.324Z,8.90
2019-01-25T18:29:00.705Z,9.00
2019-01-25T18:39:02.020Z,8.97
2019-01-25T18:49:03.402Z,8.60
2019-01-25T18:59:05.715Z,8.73
2019-01-25T19:09:07.021Z,9.43
2019-01-25T19:19:08.301Z,8.83
2019-01-25T19:29:09.576Z,9.50
2019-01-25T19:39:10.844Z,8.37
2019-01-25T19:49:12.134Z,7.40
2019-01-25T19:59:13.389Z,7.37
2019-01-25T20:09:14.686Z,8.23
2019-01-25T20:19:16.018Z,7.70
2019-01-25T20:29:17.258Z,7.93
2019-01-25T20:39:18.522Z,7.83
2019-01-25T20:49:19.803Z,7.53
2019-01-25T20:59:21.137Z,7.80
2019-01-25T21:09:22.429Z,7.33
2019-01-25T21:19:23.716Z,7.97
2019-01-25T21:29:25.006Z,7.53
2019-01-25T21:39:26.320Z,7.20
2019-01-25T21:49:27.681Z,7.10
2019-01-25T21:59:29.009Z,6.63
2019-01-25T22:09:30.361Z,7.00
2019-01-25T22:19:31.698Z,6.47
2019-01-25T22:29:33.035Z,6.23
2019-01-25T22:39:34.307Z,6.17
2019-01-25T22:49:35.598Z,6.67
2019-01-25T22:59:36.869Z,6.17
2019-01-25T23:09:38.190Z,5.80
2019-01-25T23:19:39.452Z,6.60
2019-01-25T23:29:40.777Z,5.90
2019-01-25T23:39:42.039Z,5.53
2019-01-25T23:49:43.381Z,5.60
2019-01-25T23:59:44.707Z,5.63
